Terminal Aerodrome Forecast
Issued by NWS

Home | Current Version | Previous Version | Text Only | Print | Product List | Glossary On
Versions: 1 2 3 4 5 6 7 8 9 10 11 12
000
FTUS46 KSGX 160500
TAFONT
TAF
KONT 160520Z 1606/1712 VRB05KT P6SM FEW100
     FM162030 26012KT P6SM SCT090 SCT200
     FM170330 VRB05KT P6SM FEW090 SCT200=

USA.gov is the U.S. government's official web portal to all federal, state and local government web resources and services.